sensor_id;sensor_type;location;lat;lon;timestamp;pressure;altitude;pressure_sealevel;temperature;humidity
79174;BME280;68599;49.142;9.124;2024-02-14T00:02:04;100191.27;;;4.85;72.15
79174;BME280;68599;49.142;9.124;2024-02-14T00:04:32;100193.80;;;4.76;72.63
79174;BME280;68599;49.142;9.124;2024-02-14T00:06:59;100190.69;;;4.82;72.56
79174;BME280;68599;49.142;9.124;2024-02-14T00:09:25;100190.94;;;4.88;72.36
79174;BME280;68599;49.142;9.124;2024-02-14T00:11:52;100191.21;;;4.82;72.60
79174;BME280;68599;49.142;9.124;2024-02-14T00:14:18;100188.58;;;4.85;72.52
79174;BME280;68599;49.142;9.124;2024-02-14T00:16:46;100191.42;;;4.84;72.21
79174;BME280;68599;49.142;9.124;2024-02-14T00:19:13;100194.05;;;4.81;72.24
79174;BME280;68599;49.142;9.124;2024-02-14T00:21:40;100196.09;;;4.85;72.13
79174;BME280;68599;49.142;9.124;2024-02-14T00:24:07;100198.13;;;4.78;71.78
79174;BME280;68599;49.142;9.124;2024-02-14T00:26:34;100195.20;;;4.75;72.17
79174;BME280;68599;49.142;9.124;2024-02-14T00:29:01;100197.04;;;4.78;71.89
79174;BME280;68599;49.142;9.124;2024-02-14T00:31:28;100201.84;;;4.76;71.95
79174;BME280;68599;49.142;9.124;2024-02-14T00:33:55;100201.48;;;4.77;71.74
79174;BME280;68599;49.142;9.124;2024-02-14T00:36:23;100202.92;;;4.77;71.68
79174;BME280;68599;49.142;9.124;2024-02-14T00:38:49;100205.20;;;4.86;71.08
79174;BME280;68599;49.142;9.124;2024-02-14T00:41:16;100207.08;;;4.80;71.24
79174;BME280;68599;49.142;9.124;2024-02-14T00:43:42;100203.94;;;4.74;71.52
79174;BME280;68599;49.142;9.124;2024-02-14T00:46:09;100202.16;;;4.74;71.44
79174;BME280;68599;49.142;9.124;2024-02-14T00:48:35;100200.91;;;4.74;71.46
79174;BME280;68599;49.142;9.124;2024-02-14T00:51:02;100202.59;;;4.79;71.26
79174;BME280;68599;49.142;9.124;2024-02-14T00:53:29;100203.85;;;4.80;71.44
79174;BME280;68599;49.142;9.124;2024-02-14T00:55:56;100202.33;;;4.98;70.45
79174;BME280;68599;49.142;9.124;2024-02-14T00:58:22;100205.89;;;5.10;70.09
79174;BME280;68599;49.142;9.124;2024-02-14T01:00:49;100210.38;;;5.11;70.18
79174;BME280;68599;49.142;9.124;2024-02-14T01:03:15;100205.95;;;5.13;69.84
79174;BME280;68599;49.142;9.124;2024-02-14T01:05:43;100204.00;;;5.14;70.00
79174;BME280;68599;49.142;9.124;2024-02-14T01:08:10;100207.17;;;5.12;70.09
79174;BME280;68599;49.142;9.124;2024-02-14T01:10:37;100207.29;;;5.20;69.92
79174;BME280;68599;49.142;9.124;2024-02-14T01:13:03;100209.35;;;5.14;69.94
79174;BME280;68599;49.142;9.124;2024-02-14T01:15:31;100205.87;;;5.21;70.15
79174;BME280;68599;49.142;9.124;2024-02-14T01:17:57;100202.84;;;5.36;69.30
79174;BME280;68599;49.142;9.124;2024-02-14T01:20:24;100201.44;;;5.38;69.30
79174;BME280;68599;49.142;9.124;2024-02-14T01:22:51;100201.09;;;5.38;69.31
79174;BME280;68599;49.142;9.124;2024-02-14T01:25:19;100200.79;;;5.42;69.10
79174;BME280;68599;49.142;9.124;2024-02-14T01:27:45;100202.52;;;5.52;68.63
79174;BME280;68599;49.142;9.124;2024-02-14T01:30:12;100199.20;;;5.58;68.60
79174;BME280;68599;49.142;9.124;2024-02-14T01:32:38;100201.14;;;5.56;68.57
79174;BME280;68599;49.142;9.124;2024-02-14T01:35:06;100201.61;;;5.65;68.46
79174;BME280;68599;49.142;9.124;2024-02-14T01:37:33;100201.31;;;5.71;68.42
79174;BME280;68599;49.142;9.124;2024-02-14T01:40:00;100196.90;;;5.77;68.17
79174;BME280;68599;49.142;9.124;2024-02-14T01:42:26;100191.23;;;5.80;68.13
79174;BME280;68599;49.142;9.124;2024-02-14T01:44:54;100187.88;;;5.84;67.57
79174;BME280;68599;49.142;9.124;2024-02-14T01:47:24;100189.46;;;5.82;67.75
79174;BME280;68599;49.142;9.124;2024-02-14T01:49:50;100187.98;;;5.79;67.87
79174;BME280;68599;49.142;9.124;2024-02-14T01:52:17;100188.71;;;5.64;68.13
79174;BME280;68599;49.142;9.124;2024-02-14T01:54:44;100197.70;;;5.68;68.10
79174;BME280;68599;49.142;9.124;2024-02-14T01:57:10;100190.63;;;5.75;67.68
79174;BME280;68599;49.142;9.124;2024-02-14T01:59:38;100188.40;;;5.68;67.94
79174;BME280;68599;49.142;9.124;2024-02-14T02:02:05;100177.14;;;5.68;67.93
79174;BME280;68599;49.142;9.124;2024-02-14T02:04:34;100177.98;;;5.63;68.02
79174;BME280;68599;49.142;9.124;2024-02-14T02:07:01;100170.83;;;5.62;68.17
79174;BME280;68599;49.142;9.124;2024-02-14T02:09:27;100170.42;;;5.76;67.90
79174;BME280;68599;49.142;9.124;2024-02-14T02:11:54;100165.00;;;5.86;67.39
79174;BME280;68599;49.142;9.124;2024-02-14T02:14:22;100167.08;;;5.95;67.05
79174;BME280;68599;49.142;9.124;2024-02-14T02:16:49;100160.98;;;5.94;66.95
79174;BME280;68599;49.142;9.124;2024-02-14T02:19:16;100162.16;;;6.03;66.98
79174;BME280;68599;49.142;9.124;2024-02-14T02:21:43;100161.79;;;6.03;66.96
79174;BME280;68599;49.142;9.124;2024-02-14T02:24:13;100156.20;;;5.98;66.92
79174;BME280;68599;49.142;9.124;2024-02-14T02:26:39;100155.34;;;6.01;66.83
79174;BME280;68599;49.142;9.124;2024-02-14T02:29:06;100156.95;;;6.02;66.90
79174;BME280;68599;49.142;9.124;2024-02-14T02:31:33;100150.67;;;6.00;67.08
79174;BME280;68599;49.142;9.124;2024-02-14T02:33:59;100144.80;;;6.01;67.04
79174;BME280;68599;49.142;9.124;2024-02-14T02:36:26;100147.23;;;5.95;67.17
79174;BME280;68599;49.142;9.124;2024-02-14T02:38:56;100146.55;;;5.83;67.63
79174;BME280;68599;49.142;9.124;2024-02-14T02:41:24;100146.16;;;5.80;67.72
79174;BME280;68599;49.142;9.124;2024-02-14T02:43:51;100139.18;;;5.62;68.47
79174;BME280;68599;49.142;9.124;2024-02-14T02:46:20;100133.25;;;5.60;68.80
79174;BME280;68599;49.142;9.124;2024-02-14T02:48:48;100136.05;;;5.55;68.93
79174;BME280;68599;49.142;9.124;2024-02-14T02:51:18;100135.45;;;5.65;68.39
79174;BME280;68599;49.142;9.124;2024-02-14T02:53:44;100132.02;;;5.60;68.88
79174;BME280;68599;49.142;9.124;2024-02-14T02:56:11;100131.04;;;5.55;69.06
79174;BME280;68599;49.142;9.124;2024-02-14T02:58:39;100127.48;;;5.40;69.81
79174;BME280;68599;49.142;9.124;2024-02-14T03:01:08;100131.97;;;5.42;69.77
79174;BME280;68599;49.142;9.124;2024-02-14T03:03:38;100132.73;;;5.45;69.53
79174;BME280;68599;49.142;9.124;2024-02-14T03:06:06;100132.83;;;5.39;69.73
79174;BME280;68599;49.142;9.124;2024-02-14T03:08:33;100132.66;;;5.39;69.40
79174;BME280;68599;49.142;9.124;2024-02-14T03:11:05;100138.24;;;5.28;69.86
79174;BME280;68599;49.142;9.124;2024-02-14T03:13:32;100137.48;;;5.24;70.00
79174;BME280;68599;49.142;9.124;2024-02-14T03:15:59;100138.52;;;5.21;69.86
79174;BME280;68599;49.142;9.124;2024-02-14T03:18:26;100141.96;;;5.25;69.46
79174;BME280;68599;49.142;9.124;2024-02-14T03:20:52;100142.35;;;5.28;69.45
79174;BME280;68599;49.142;9.124;2024-02-14T03:23:22;100139.64;;;5.24;69.74
79174;BME280;68599;49.142;9.124;2024-02-14T03:25:49;100143.08;;;5.14;69.95
79174;BME280;68599;49.142;9.124;2024-02-14T03:28:17;100145.67;;;5.22;69.93
79174;BME280;68599;49.142;9.124;2024-02-14T03:30:44;100147.92;;;5.31;69.68
79174;BME280;68599;49.142;9.124;2024-02-14T03:33:10;100146.07;;;5.24;69.95
79174;BME280;68599;49.142;9.124;2024-02-14T03:35:37;100142.73;;;5.29;69.70
79174;BME280;68599;49.142;9.124;2024-02-14T03:38:04;100140.20;;;5.28;70.26
79174;BME280;68599;49.142;9.124;2024-02-14T03:40:31;100144.61;;;5.38;69.99
79174;BME280;68599;49.142;9.124;2024-02-14T03:42:58;100145.61;;;5.46;69.70
79174;BME280;68599;49.142;9.124;2024-02-14T03:45:25;100147.13;;;5.38;69.93
79174;BME280;68599;49.142;9.124;2024-02-14T03:47:51;100149.02;;;5.49;69.73
79174;BME280;68599;49.142;9.124;2024-02-14T03:50:18;100152.74;;;5.45;70.37
79174;BME280;68599;49.142;9.124;2024-02-14T03:52:44;100148.77;;;5.41;69.97
79174;BME280;68599;49.142;9.124;2024-02-14T03:55:13;100146.08;;;5.41;70.11
79174;BME280;68599;49.142;9.124;2024-02-14T03:57:40;100150.92;;;5.42;70.32
79174;BME280;68599;49.142;9.124;2024-02-14T04:00:09;100152.64;;;5.37;70.36
79174;BME280;68599;49.142;9.124;2024-02-14T04:02:37;100156.90;;;5.33;70.66
79174;BME280;68599;49.142;9.124;2024-02-14T04:05:07;100160.95;;;5.44;70.27
79174;BME280;68599;49.142;9.124;2024-02-14T04:07:34;100163.66;;;5.46;70.41
79174;BME280;68599;49.142;9.124;2024-02-14T04:10:01;100162.39;;;5.45;70.50
79174;BME280;68599;49.142;9.124;2024-02-14T04:12:27;100162.25;;;5.47;70.25
79174;BME280;68599;49.142;9.124;2024-02-14T04:14:54;100160.55;;;5.40;70.79
79174;BME280;68599;49.142;9.124;2024-02-14T04:17:21;100163.39;;;5.39;70.71
79174;BME280;68599;49.142;9.124;2024-02-14T04:19:48;100158.97;;;5.43;70.88
79174;BME280;68599;49.142;9.124;2024-02-14T04:22:14;100163.85;;;5.46;70.47
79174;BME280;68599;49.142;9.124;2024-02-14T04:24:41;100160.55;;;5.56;70.32
79174;BME280;68599;49.142;9.124;2024-02-14T04:27:08;100171.41;;;5.84;68.78
79174;BME280;68599;49.142;9.124;2024-02-14T04:29:34;100171.86;;;5.90;68.69
79174;BME280;68599;49.142;9.124;2024-02-14T04:32:02;100172.73;;;5.89;68.63
79174;BME280;68599;49.142;9.124;2024-02-14T04:34:29;100173.14;;;5.78;68.97
79174;BME280;68599;49.142;9.124;2024-02-14T04:36:57;100173.34;;;5.80;68.75
79174;BME280;68599;49.142;9.124;2024-02-14T04:39:24;100176.66;;;5.74;69.06
79174;BME280;68599;49.142;9.124;2024-02-14T04:41:51;100176.88;;;5.76;69.10
79174;BME280;68599;49.142;9.124;2024-02-14T04:44:30;100173.23;;;5.70;69.17
79174;BME280;68599;49.142;9.124;2024-02-14T04:47:04;100162.95;;;5.79;69.30
79174;BME280;68599;49.142;9.124;2024-02-14T04:49:31;100166.28;;;5.73;69.50
79174;BME280;68599;49.142;9.124;2024-02-14T04:51:58;100166.90;;;5.80;69.51
79174;BME280;68599;49.142;9.124;2024-02-14T04:54:25;100166.98;;;5.70;69.64
79174;BME280;68599;49.142;9.124;2024-02-14T04:56:53;100164.54;;;5.75;69.55
79174;BME280;68599;49.142;9.124;2024-02-14T04:59:24;100171.34;;;5.76;69.76
79174;BME280;68599;49.142;9.124;2024-02-14T05:01:51;100164.56;;;5.78;69.74
79174;BME280;68599;49.142;9.124;2024-02-14T05:04:20;100166.65;;;5.89;69.47
79174;BME280;68599;49.142;9.124;2024-02-14T05:06:47;100161.81;;;5.88;69.14
79174;BME280;68599;49.142;9.124;2024-02-14T05:09:15;100166.33;;;5.92;69.15
79174;BME280;68599;49.142;9.124;2024-02-14T05:11:42;100172.29;;;5.96;69.03
79174;BME280;68599;49.142;9.124;2024-02-14T05:14:08;100178.75;;;5.84;68.93
79174;BME280;68599;49.142;9.124;2024-02-14T05:16:35;100172.63;;;5.96;69.07
79174;BME280;68599;49.142;9.124;2024-02-14T05:19:02;100167.65;;;5.98;68.76
79174;BME280;68599;49.142;9.124;2024-02-14T05:21:28;100164.65;;;6.01;68.99
79174;BME280;68599;49.142;9.124;2024-02-14T05:23:56;100164.13;;;6.03;68.97
79174;BME280;68599;49.142;9.124;2024-02-14T05:26:22;100168.27;;;6.08;68.75
79174;BME280;68599;49.142;9.124;2024-02-14T05:28:49;100167.80;;;6.13;68.41
79174;BME280;68599;49.142;9.124;2024-02-14T05:31:15;100162.33;;;6.02;68.95
79174;BME280;68599;49.142;9.124;2024-02-14T05:33:43;100164.30;;;6.03;68.82
79174;BME280;68599;49.142;9.124;2024-02-14T05:36:09;100162.23;;;5.94;69.19
79174;BME280;68599;49.142;9.124;2024-02-14T05:38:37;100156.96;;;6.03;69.31
79174;BME280;68599;49.142;9.124;2024-02-14T05:41:03;100160.89;;;6.02;69.13
79174;BME280;68599;49.142;9.124;2024-02-14T05:43:30;100163.83;;;6.09;69.26
79174;BME280;68599;49.142;9.124;2024-02-14T05:45:56;100164.77;;;5.95;69.69
79174;BME280;68599;49.142;9.124;2024-02-14T05:48:23;100160.59;;;6.08;69.37
79174;BME280;68599;49.142;9.124;2024-02-14T05:50:49;100159.59;;;5.97;69.76
79174;BME280;68599;49.142;9.124;2024-02-14T05:53:16;100158.44;;;6.06;69.59
79174;BME280;68599;49.142;9.124;2024-02-14T05:55:43;100158.84;;;5.94;70.02
79174;BME280;68599;49.142;9.124;2024-02-14T05:58:10;100156.46;;;6.06;69.49
79174;BME280;68599;49.142;9.124;2024-02-14T06:00:38;100158.08;;;6.08;69.13
79174;BME280;68599;49.142;9.124;2024-02-14T06:03:05;100161.23;;;5.99;69.61
79174;BME280;68599;49.142;9.124;2024-02-14T06:05:34;100162.83;;;5.99;69.44
79174;BME280;68599;49.142;9.124;2024-02-14T06:08:01;100160.67;;;5.98;69.76
79174;BME280;68599;49.142;9.124;2024-02-14T06:10:29;100154.50;;;5.90;69.79
79174;BME280;68599;49.142;9.124;2024-02-14T06:12:56;100154.70;;;5.91;69.72
79174;BME280;68599;49.142;9.124;2024-02-14T06:15:23;100151.71;;;5.96;69.70
79174;BME280;68599;49.142;9.124;2024-02-14T06:17:50;100148.92;;;5.89;69.93
79174;BME280;68599;49.142;9.124;2024-02-14T06:20:17;100147.96;;;5.81;70.15
79174;BME280;68599;49.142;9.124;2024-02-14T06:22:43;100159.05;;;5.82;70.00
79174;BME280;68599;49.142;9.124;2024-02-14T06:25:22;100170.64;;;5.93;69.38
79174;BME280;68599;49.142;9.124;2024-02-14T06:27:49;100184.39;;;6.07;69.00
79174;BME280;68599;49.142;9.124;2024-02-14T06:30:16;100185.39;;;6.01;69.33
79174;BME280;68599;49.142;9.124;2024-02-14T06:32:44;100187.45;;;6.11;69.02
79174;BME280;68599;49.142;9.124;2024-02-14T06:35:11;100190.43;;;6.23;68.48
79174;BME280;68599;49.142;9.124;2024-02-14T06:37:39;100185.39;;;6.20;68.59
79174;BME280;68599;49.142;9.124;2024-02-14T06:40:18;100182.52;;;6.20;68.71
79174;BME280;68599;49.142;9.124;2024-02-14T06:42:45;100189.63;;;6.34;68.33
79174;BME280;68599;49.142;9.124;2024-02-14T06:45:11;100195.82;;;6.46;67.41
79174;BME280;68599;49.142;9.124;2024-02-14T06:47:38;100191.27;;;6.38;67.69
79174;BME280;68599;49.142;9.124;2024-02-14T06:50:05;100195.62;;;6.42;67.76
79174;BME280;68599;49.142;9.124;2024-02-14T06:52:34;100196.42;;;6.33;68.02
79174;BME280;68599;49.142;9.124;2024-02-14T06:55:01;100195.30;;;6.27;68.38
79174;BME280;68599;49.142;9.124;2024-02-14T06:57:30;100202.77;;;6.41;67.94
79174;BME280;68599;49.142;9.124;2024-02-14T06:59:57;100203.66;;;6.62;67.06
79174;BME280;68599;49.142;9.124;2024-02-14T07:02:24;100203.67;;;6.65;66.72
79174;BME280;68599;49.142;9.124;2024-02-14T07:04:54;100210.95;;;6.81;66.45
79174;BME280;68599;49.142;9.124;2024-02-14T07:07:21;100215.61;;;6.81;66.30
79174;BME280;68599;49.142;9.124;2024-02-14T07:09:47;100214.23;;;6.88;65.90
79174;BME280;68599;49.142;9.124;2024-02-14T07:12:14;100219.50;;;6.73;66.48
79174;BME280;68599;49.142;9.124;2024-02-14T07:14:41;100225.52;;;6.87;66.13
79174;BME280;68599;49.142;9.124;2024-02-14T07:17:08;100226.10;;;6.94;65.68
79174;BME280;68599;49.142;9.124;2024-02-14T07:19:34;100229.21;;;7.05;65.26
79174;BME280;68599;49.142;9.124;2024-02-14T07:22:01;100229.46;;;7.17;65.14
79174;BME280;68599;49.142;9.124;2024-02-14T07:24:27;100230.38;;;7.20;65.29
79174;BME280;68599;49.142;9.124;2024-02-14T07:26:54;100228.33;;;7.37;64.97
79174;BME280;68599;49.142;9.124;2024-02-14T07:29:21;100228.55;;;7.48;64.26
79174;BME280;68599;49.142;9.124;2024-02-14T07:31:47;100233.12;;;7.64;64.22
79174;BME280;68599;49.142;9.124;2024-02-14T07:34:14;100236.19;;;7.71;63.44
79174;BME280;68599;49.142;9.124;2024-02-14T07:36:41;100240.54;;;7.84;63.36
79174;BME280;68599;49.142;9.124;2024-02-14T07:39:12;100241.79;;;7.83;63.08
79174;BME280;68599;49.142;9.124;2024-02-14T07:41:39;100238.06;;;7.93;63.17
79174;BME280;68599;49.142;9.124;2024-02-14T07:44:06;100251.91;;;7.99;63.09
79174;BME280;68599;49.142;9.124;2024-02-14T07:46:32;100256.75;;;8.00;62.62
79174;BME280;68599;49.142;9.124;2024-02-14T07:48:59;100257.64;;;7.99;62.82
79174;BME280;68599;49.142;9.124;2024-02-14T07:51:26;100263.58;;;8.03;62.71
79174;BME280;68599;49.142;9.124;2024-02-14T07:53:55;100263.23;;;8.09;62.71
79174;BME280;68599;49.142;9.124;2024-02-14T07:56:22;100256.83;;;8.23;62.97
79174;BME280;68599;49.142;9.124;2024-02-14T07:58:48;100257.23;;;8.45;62.21
79174;BME280;68599;49.142;9.124;2024-02-14T08:01:16;100255.99;;;8.51;61.93
79174;BME280;68599;49.142;9.124;2024-02-14T08:03:43;100255.41;;;8.31;62.02
79174;BME280;68599;49.142;9.124;2024-02-14T08:06:12;100251.23;;;8.16;62.41
79174;BME280;68599;49.142;9.124;2024-02-14T08:08:39;100254.48;;;8.24;62.77
79174;BME280;68599;49.142;9.124;2024-02-14T08:11:07;100256.48;;;8.28;62.50
79174;BME280;68599;49.142;9.124;2024-02-14T08:13:33;100255.23;;;8.32;62.73
79174;BME280;68599;49.142;9.124;2024-02-14T08:16:01;100247.55;;;8.49;62.47
79174;BME280;68599;49.142;9.124;2024-02-14T08:18:27;100244.86;;;8.81;61.78
79174;BME280;68599;49.142;9.124;2024-02-14T08:20:54;100245.55;;;9.15;60.88
79174;BME280;68599;49.142;9.124;2024-02-14T08:23:21;100242.73;;;9.60;60.05
79174;BME280;68599;49.142;9.124;2024-02-14T08:25:47;100243.89;;;9.85;59.37
79174;BME280;68599;49.142;9.124;2024-02-14T08:28:15;100246.17;;;9.55;58.99
79174;BME280;68599;49.142;9.124;2024-02-14T08:30:44;100240.84;;;9.29;59.47
79174;BME280;68599;49.142;9.124;2024-02-14T08:33:11;100239.19;;;9.41;59.98
79174;BME280;68599;49.142;9.124;2024-02-14T08:35:37;100242.06;;;9.42;59.73
79174;BME280;68599;49.142;9.124;2024-02-14T08:38:09;100240.65;;;9.32;60.32
79174;BME280;68599;49.142;9.124;2024-02-14T08:40:35;100254.00;;;9.14;60.95
79174;BME280;68599;49.142;9.124;2024-02-14T08:43:03;100255.60;;;9.29;60.56
79174;BME280;68599;49.142;9.124;2024-02-14T08:45:31;100251.13;;;9.14;60.81
79174;BME280;68599;49.142;9.124;2024-02-14T08:47:58;100245.20;;;9.12;61.22
79174;BME280;68599;49.142;9.124;2024-02-14T08:50:25;100246.25;;;9.28;60.99
79174;BME280;68599;49.142;9.124;2024-02-14T08:52:52;100242.80;;;9.38;60.73
79174;BME280;68599;49.142;9.124;2024-02-14T08:55:18;100251.97;;;9.37;60.47
79174;BME280;68599;49.142;9.124;2024-02-14T08:57:45;100252.70;;;9.34;60.60
79174;BME280;68599;49.142;9.124;2024-02-14T09:00:15;100259.70;;;9.40;60.67
79174;BME280;68599;49.142;9.124;2024-02-14T09:02:46;100267.61;;;9.41;60.48
79174;BME280;68599;49.142;9.124;2024-02-14T09:05:14;100263.11;;;9.41;60.40
79174;BME280;68599;49.142;9.124;2024-02-14T09:07:40;100261.52;;;9.35;60.59
79174;BME280;68599;49.142;9.124;2024-02-14T09:10:09;100266.02;;;9.27;60.62
79174;BME280;68599;49.142;9.124;2024-02-14T09:12:37;100261.18;;;9.21;61.19
79174;BME280;68599;49.142;9.124;2024-02-14T09:15:05;100262.80;;;9.17;61.08
79174;BME280;68599;49.142;9.124;2024-02-14T09:17:32;100261.71;;;9.28;60.71
79174;BME280;68599;49.142;9.124;2024-02-14T09:19:59;100266.73;;;9.37;60.47
79174;BME280;68599;49.142;9.124;2024-02-14T09:22:26;100259.73;;;9.32;60.88
79174;BME280;68599;49.142;9.124;2024-02-14T09:24:53;100263.67;;;9.28;61.28
79174;BME280;68599;49.142;9.124;2024-02-14T09:27:19;100257.36;;;9.38;61.36
79174;BME280;68599;49.142;9.124;2024-02-14T09:29:46;100253.38;;;9.49;61.32
79174;BME280;68599;49.142;9.124;2024-02-14T09:32:13;100249.73;;;9.68;60.54
79174;BME280;68599;49.142;9.124;2024-02-14T09:34:40;100252.10;;;9.97;59.77
79174;BME280;68599;49.142;9.124;2024-02-14T09:37:07;100245.61;;;10.38;58.79
79174;BME280;68599;49.142;9.124;2024-02-14T09:39:33;100247.77;;;10.64;57.80
79174;BME280;68599;49.142;9.124;2024-02-14T09:42:08;100247.95;;;10.62;57.51
79174;BME280;68599;49.142;9.124;2024-02-14T09:44:36;100243.79;;;10.65;58.31
79174;BME280;68599;49.142;9.124;2024-02-14T09:47:07;100248.92;;;10.76;57.85
79174;BME280;68599;49.142;9.124;2024-02-14T09:49:35;100250.45;;;10.88;58.31
79174;BME280;68599;49.142;9.124;2024-02-14T09:52:05;100247.77;;;11.06;58.32
79174;BME280;68599;49.142;9.124;2024-02-14T09:54:32;100247.95;;;11.24;57.86
79174;BME280;68599;49.142;9.124;2024-02-14T09:57:02;100244.16;;;11.23;57.34
79174;BME280;68599;49.142;9.124;2024-02-14T09:59:29;100245.65;;;11.19;57.23
79174;BME280;68599;49.142;9.124;2024-02-14T10:01:57;100243.82;;;11.22;57.55
79174;BME280;68599;49.142;9.124;2024-02-14T10:04:24;100242.33;;;11.44;57.36
79174;BME280;68599;49.142;9.124;2024-02-14T10:06:52;100247.09;;;11.37;57.26
79174;BME280;68599;49.142;9.124;2024-02-14T10:09:23;100245.41;;;11.42;57.39
79174;BME280;68599;49.142;9.124;2024-02-14T10:11:52;100242.29;;;11.47;57.01
79174;BME280;68599;49.142;9.124;2024-02-14T10:14:18;100247.47;;;11.35;57.13
79174;BME280;68599;49.142;9.124;2024-02-14T10:16:45;100247.33;;;11.13;57.98
79174;BME280;68599;49.142;9.124;2024-02-14T10:19:16;100246.85;;;11.26;57.44
79174;BME280;68599;49.142;9.124;2024-02-14T10:21:44;100246.20;;;11.53;57.21
79174;BME280;68599;49.142;9.124;2024-02-14T10:24:21;100244.14;;;11.91;56.41
79174;BME280;68599;49.142;9.124;2024-02-14T10:26:48;100245.59;;;12.05;55.80
79174;BME280;68599;49.142;9.124;2024-02-14T10:29:15;100248.84;;;11.91;55.75
79174;BME280;68599;49.142;9.124;2024-02-14T10:31:41;100245.48;;;11.84;55.50
79174;BME280;68599;49.142;9.124;2024-02-14T10:34:10;100249.45;;;11.99;55.47
79174;BME280;68599;49.142;9.124;2024-02-14T10:36:37;100250.10;;;12.67;53.92
79174;BME280;68599;49.142;9.124;2024-02-14T10:39:07;100249.39;;;12.66;52.40
79174;BME280;68599;49.142;9.124;2024-02-14T10:41:36;100253.16;;;12.31;53.13
79174;BME280;68599;49.142;9.124;2024-02-14T10:44:03;100250.05;;;12.69;52.83
79174;BME280;68599;49.142;9.124;2024-02-14T10:46:37;100247.38;;;13.11;51.97
79174;BME280;68599;49.142;9.124;2024-02-14T10:49:05;100251.77;;;13.08;52.24
79174;BME280;68599;49.142;9.124;2024-02-14T10:51:34;100251.02;;;13.10;51.91
79174;BME280;68599;49.142;9.124;2024-02-14T10:54:11;100261.13;;;12.77;52.62
79174;BME280;68599;49.142;9.124;2024-02-14T10:56:41;100259.88;;;12.66;53.00
79174;BME280;68599;49.142;9.124;2024-02-14T10:59:09;100257.76;;;12.73;53.96
79174;BME280;68599;49.142;9.124;2024-02-14T11:01:38;100255.53;;;12.88;54.36
79174;BME280;68599;49.142;9.124;2024-02-14T11:04:05;100256.83;;;13.08;54.06
79174;BME280;68599;49.142;9.124;2024-02-14T11:06:52;100266.89;;;13.24;53.73
79174;BME280;68599;49.142;9.124;2024-02-14T11:09:40;100267.65;;;13.22;53.86
79174;BME280;68599;49.142;9.124;2024-02-14T11:12:08;100269.91;;;13.28;53.33
79174;BME280;68599;49.142;9.124;2024-02-14T11:14:35;100263.63;;;13.43;53.15
79174;BME280;68599;49.142;9.124;2024-02-14T11:17:13;100262.80;;;13.50;52.78
79174;BME280;68599;49.142;9.124;2024-02-14T11:19:40;100255.58;;;13.48;52.90
79174;BME280;68599;49.142;9.124;2024-02-14T11:22:12;100258.76;;;13.52;52.77
79174;BME280;68599;49.142;9.124;2024-02-14T11:24:39;100259.98;;;13.45;53.38
79174;BME280;68599;49.142;9.124;2024-02-14T11:27:10;100268.85;;;13.54;53.60
79174;BME280;68599;49.142;9.124;2024-02-14T11:29:59;100269.86;;;13.49;53.90
79174;BME280;68599;49.142;9.124;2024-02-14T11:32:27;100268.52;;;13.23;55.22
79174;BME280;68599;49.142;9.124;2024-02-14T11:34:55;100274.45;;;13.15;55.67
79174;BME280;68599;49.142;9.124;2024-02-14T11:37:29;100274.89;;;13.10;56.26
79174;BME280;68599;49.142;9.124;2024-02-14T11:39:58;100271.31;;;13.18;56.36
79174;BME280;68599;49.142;9.124;2024-02-14T11:42:24;100270.45;;;13.05;57.25
79174;BME280;68599;49.142;9.124;2024-02-14T11:44:53;100268.83;;;13.17;57.24
79174;BME280;68599;49.142;9.124;2024-02-14T11:47:23;100267.33;;;13.40;56.86
79174;BME280;68599;49.142;9.124;2024-02-14T11:49:51;100271.54;;;13.37;57.37
79174;BME280;68599;49.142;9.124;2024-02-14T11:52:18;100268.52;;;13.43;57.60
79174;BME280;68599;49.142;9.124;2024-02-14T11:54:46;100270.00;;;13.69;57.21
79174;BME280;68599;49.142;9.124;2024-02-14T11:57:17;100269.60;;;13.71;57.14
79174;BME280;68599;49.142;9.124;2024-02-14T11:59:50;100268.41;;;13.86;56.54
79174;BME280;68599;49.142;9.124;2024-02-14T12:02:20;100271.73;;;13.83;56.86
79174;BME280;68599;49.142;9.124;2024-02-14T12:04:48;100269.98;;;13.89;56.99
79174;BME280;68599;49.142;9.124;2024-02-14T12:07:17;100265.38;;;14.10;56.61
79174;BME280;68599;49.142;9.124;2024-02-14T12:09:45;100261.95;;;14.17;56.30
79174;BME280;68599;49.142;9.124;2024-02-14T12:12:12;100256.50;;;14.34;55.95
79174;BME280;68599;49.142;9.124;2024-02-14T12:14:39;100258.67;;;14.43;55.37
79174;BME280;68599;49.142;9.124;2024-02-14T12:17:05;100258.52;;;14.50;55.18
79174;BME280;68599;49.142;9.124;2024-02-14T12:19:33;100256.25;;;14.29;55.45
79174;BME280;68599;49.142;9.124;2024-02-14T12:22:02;100251.25;;;14.34;55.55
79174;BME280;68599;49.142;9.124;2024-02-14T12:24:28;100244.73;;;14.43;54.87
79174;BME280;68599;49.142;9.124;2024-02-14T12:26:55;100238.99;;;14.47;55.39
79174;BME280;68599;49.142;9.124;2024-02-14T12:29:23;100234.36;;;14.67;54.98
79174;BME280;68599;49.142;9.124;2024-02-14T12:31:51;100231.16;;;14.72;54.84
79174;BME280;68599;49.142;9.124;2024-02-14T12:34:18;100226.69;;;14.84;54.73
79174;BME280;68599;49.142;9.124;2024-02-14T12:36:51;100221.39;;;14.93;54.79
79174;BME280;68599;49.142;9.124;2024-02-14T12:39:17;100223.48;;;14.95;54.53
79174;BME280;68599;49.142;9.124;2024-02-14T12:41:45;100221.79;;;14.91;54.04
79174;BME280;68599;49.142;9.124;2024-02-14T12:44:11;100218.09;;;14.65;54.31
79174;BME280;68599;49.142;9.124;2024-02-14T12:46:38;100214.24;;;14.59;54.45
79174;BME280;68599;49.142;9.124;2024-02-14T12:49:05;100210.60;;;14.52;54.57
79174;BME280;68599;49.142;9.124;2024-02-14T12:51:32;100210.73;;;14.54;54.35
79174;BME280;68599;49.142;9.124;2024-02-14T12:54:00;100206.83;;;14.43;55.00
79174;BME280;68599;49.142;9.124;2024-02-14T12:56:27;100207.60;;;14.56;54.80
79174;BME280;68599;49.142;9.124;2024-02-14T12:58:53;100207.53;;;14.66;54.40
79174;BME280;68599;49.142;9.124;2024-02-14T13:01:20;100206.58;;;14.68;54.29